sensor_id;sensor_type;location;lat;lon;timestamp;temperature;humidity
55016;DHT22;40919;43.236;21.590;2023-08-12T00:01:52;460.90;2380.80
55016;DHT22;40919;43.236;21.590;2023-08-12T00:04:17;460.90;2380.80
55016;DHT22;40919;43.236;21.590;2023-08-12T00:06:43;460.90;2380.80
55016;DHT22;40919;43.236;21.590;2023-08-12T00:09:10;460.80;2380.80
55016;DHT22;40919;43.236;21.590;2023-08-12T00:11:37;460.80;2380.80
55016;DHT22;40919;43.236;21.590;2023-08-12T00:14:04;460.80;2380.80
55016;DHT22;40919;43.236;21.590;2023-08-12T00:16:30;460.80;2380.80
55016;DHT22;40919;43.236;21.590;2023-08-12T00:18:56;436.00;2355.20
55016;DHT22;40919;43.236;21.590;2023-08-12T00:21:22;435.90;2355.20
55016;DHT22;40919;43.236;21.590;2023-08-12T00:23:47;436.00;2355.20
55016;DHT22;40919;43.236;21.590;2023-08-12T00:26:15;435.90;2355.20
55016;DHT22;40919;43.236;21.590;2023-08-12T00:28:41;436.00;2355.20
55016;DHT22;40919;43.236;21.590;2023-08-12T00:31:07;436.00;2355.20
55016;DHT22;40919;43.236;21.590;2023-08-12T00:33:33;436.00;2355.20
55016;DHT22;40919;43.236;21.590;2023-08-12T00:35:58;436.00;2355.20
55016;DHT22;40919;43.236;21.590;2023-08-12T00:38:24;436.00;2355.20
55016;DHT22;40919;43.236;21.590;2023-08-12T00:40:50;435.90;2355.20
55016;DHT22;40919;43.236;21.590;2023-08-12T00:43:16;435.90;2355.20
55016;DHT22;40919;43.236;21.590;2023-08-12T00:45:42;436.00;2355.20
55016;DHT22;40919;43.236;21.590;2023-08-12T00:48:08;436.00;2355.20
55016;DHT22;40919;43.236;21.590;2023-08-12T00:50:36;436.10;2355.20
55016;DHT22;40919;43.236;21.590;2023-08-12T00:53:03;435.90;2355.20
55016;DHT22;40919;43.236;21.590;2023-08-12T00:55:32;436.00;2355.20
55016;DHT22;40919;43.236;21.590;2023-08-12T00:57:58;435.90;2355.20
55016;DHT22;40919;43.236;21.590;2023-08-12T01:00:24;435.90;2355.20
55016;DHT22;40919;43.236;21.590;2023-08-12T01:02:51;435.60;2355.20
55016;DHT22;40919;43.236;21.590;2023-08-12T01:05:18;435.60;2355.20
55016;DHT22;40919;43.236;21.590;2023-08-12T01:07:45;435.60;2355.20
55016;DHT22;40919;43.236;21.590;2023-08-12T01:10:12;435.60;2355.20
55016;DHT22;40919;43.236;21.590;2023-08-12T01:12:49;435.70;2355.20
55016;DHT22;40919;43.236;21.590;2023-08-12T01:15:23;435.70;2355.20
55016;DHT22;40919;43.236;21.590;2023-08-12T01:17:51;435.60;2355.20
55016;DHT22;40919;43.236;21.590;2023-08-12T01:20:20;435.60;2355.20
55016;DHT22;40919;43.236;21.590;2023-08-12T01:22:57;435.50;2355.20
55016;DHT22;40919;43.236;21.590;2023-08-12T01:30:18;435.80;2355.20
55016;DHT22;40919;43.236;21.590;2023-08-12T01:37:43;435.50;2355.20
55016;DHT22;40919;43.236;21.590;2023-08-12T01:40:11;435.50;2355.20
55016;DHT22;40919;43.236;21.590;2023-08-12T01:42:39;435.30;2355.20
55016;DHT22;40919;43.236;21.590;2023-08-12T05:58:45;435.80;2355.20
55016;DHT22;40919;43.236;21.590;2023-08-12T06:01:10;435.70;2355.20
55016;DHT22;40919;43.236;21.590;2023-08-12T06:03:36;435.70;2355.20
55016;DHT22;40919;43.236;21.590;2023-08-12T06:06:03;435.70;2355.20
55016;DHT22;40919;43.236;21.590;2023-08-12T06:08:28;435.80;2355.20
55016;DHT22;40919;43.236;21.590;2023-08-12T06:10:54;436.00;2355.20
55016;DHT22;40919;43.236;21.590;2023-08-12T06:13:20;436.00;2355.20
55016;DHT22;40919;43.236;21.590;2023-08-12T06:15:46;436.10;2355.20
55016;DHT22;40919;43.236;21.590;2023-08-12T06:18:12;460.80;2380.80
55016;DHT22;40919;43.236;21.590;2023-08-12T06:20:37;460.90;2380.80
55016;DHT22;40919;43.236;21.590;2023-08-12T06:23:03;460.90;2380.80
55016;DHT22;40919;43.236;21.590;2023-08-12T06:25:29;461.10;2380.80
55016;DHT22;40919;43.236;21.590;2023-08-12T06:27:56;461.10;2380.80
55016;DHT22;40919;43.236;21.590;2023-08-12T06:30:24;461.10;2380.80
55016;DHT22;40919;43.236;21.590;2023-08-12T06:32:50;461.30;2380.80
55016;DHT22;40919;43.236;21.590;2023-08-12T06:35:15;461.40;2380.80
55016;DHT22;40919;43.236;21.590;2023-08-12T06:37:41;461.50;2380.80
55016;DHT22;40919;43.236;21.590;2023-08-12T06:40:07;461.60;2380.80
55016;DHT22;40919;43.236;21.590;2023-08-12T06:42:33;461.70;2380.80
55016;DHT22;40919;43.236;21.590;2023-08-12T06:45:00;486.40;2380.80
55016;DHT22;40919;43.236;21.590;2023-08-12T06:47:26;461.70;2380.80
55016;DHT22;40919;43.236;21.590;2023-08-12T06:49:53;486.40;2380.80
55016;DHT22;40919;43.236;21.590;2023-08-12T06:52:19;486.50;2380.80
55016;DHT22;40919;43.236;21.590;2023-08-12T06:54:45;486.70;2380.80
55016;DHT22;40919;43.236;21.590;2023-08-12T06:57:11;486.80;2380.80
55016;DHT22;40919;43.236;21.590;2023-08-12T06:59:37;486.90;2380.80
55016;DHT22;40919;43.236;21.590;2023-08-12T07:02:03;487.00;2380.80
55016;DHT22;40919;43.236;21.590;2023-08-12T07:04:29;487.00;2380.80
55016;DHT22;40919;43.236;21.590;2023-08-12T07:06:55;487.20;2380.80
55016;DHT22;40919;43.236;21.590;2023-08-12T07:09:21;487.30;2380.80
55016;DHT22;40919;43.236;21.590;2023-08-12T07:11:47;487.30;2380.80
55016;DHT22;40919;43.236;21.590;2023-08-12T07:14:12;487.30;2380.80
55016;DHT22;40919;43.236;21.590;2023-08-12T07:16:38;512.20;2380.80
55016;DHT22;40919;43.236;21.590;2023-08-12T07:19:04;512.40;2380.80
55016;DHT22;40919;43.236;21.590;2023-08-12T07:21:30;512.70;2380.80
55016;DHT22;40919;43.236;21.590;2023-08-12T07:23:56;512.80;2380.80
55016;DHT22;40919;43.236;21.590;2023-08-12T07:26:21;512.80;2380.80
55016;DHT22;40919;43.236;21.590;2023-08-12T07:28:47;512.90;2380.80
55016;DHT22;40919;43.236;21.590;2023-08-12T07:31:13;537.60;2406.40
55016;DHT22;40919;43.236;21.590;2023-08-12T07:33:39;537.60;2406.40
55016;DHT22;40919;43.236;21.590;2023-08-12T07:36:05;537.80;2406.40
55016;DHT22;40919;43.236;21.590;2023-08-12T07:38:31;538.10;2406.40
55016;DHT22;40919;43.236;21.590;2023-08-12T07:40:57;538.20;2406.40
55016;DHT22;40919;43.236;21.590;2023-08-12T07:43:23;538.40;2406.40
55016;DHT22;40919;43.236;21.590;2023-08-12T07:45:53;538.50;2406.40
55016;DHT22;40919;43.236;21.590;2023-08-12T07:48:22;538.40;2406.40
55016;DHT22;40919;43.236;21.590;2023-08-12T07:50:55;563.40;2432.00
55016;DHT22;40919;43.236;21.590;2023-08-12T07:53:21;563.60;2432.00
55016;DHT22;40919;43.236;21.590;2023-08-12T07:55:47;563.80;2432.00
55016;DHT22;40919;43.236;21.590;2023-08-12T07:58:13;564.00;2432.00
55016;DHT22;40919;43.236;21.590;2023-08-12T08:00:39;564.00;2432.00
55016;DHT22;40919;43.236;21.590;2023-08-12T08:03:05;564.10;2432.00
55016;DHT22;40919;43.236;21.590;2023-08-12T09:38:42;666.20;2176.00
55016;DHT22;40919;43.236;21.590;2023-08-12T09:41:08;666.40;2150.40
55016;DHT22;40919;43.236;21.590;2023-08-12T09:43:34;666.30;2124.80
55016;DHT22;40919;43.236;21.590;2023-08-12T09:46:00;666.20;2150.40
55016;DHT22;40919;43.236;21.590;2023-08-12T09:48:26;666.30;2176.00
55016;DHT22;40919;43.236;21.590;2023-08-12T09:50:55;691.30;2227.20
55016;DHT22;40919;43.236;21.590;2023-08-12T09:53:22;691.20;2406.40
55016;DHT22;40919;43.236;21.590;2023-08-12T10:03:11;692.10;2073.60
55016;DHT22;40919;43.236;21.590;2023-08-12T10:05:41;691.90;2099.20
55016;DHT22;40919;43.236;21.590;2023-08-12T10:15:32;717.50;2073.60
55016;DHT22;40919;43.236;21.590;2023-08-12T10:17:59;717.60;2048.00
55016;DHT22;40919;43.236;21.590;2023-08-12T10:20:26;717.70;2073.60
55016;DHT22;40919;43.236;21.590;2023-08-12T10:50:26;768.30;1894.40
55016;DHT22;40919;43.236;21.590;2023-08-12T10:52:53;768.10;1868.80
55016;DHT22;40919;43.236;21.590;2023-08-12T10:55:24;743.30;1868.80
55016;DHT22;40919;43.236;21.590;2023-08-12T10:57:51;743.30;1894.40
55016;DHT22;40919;43.236;21.590;2023-08-12T11:00:25;768.10;1920.00
55016;DHT22;40919;43.236;21.590;2023-08-12T11:02:58;768.30;1920.00
55016;DHT22;40919;43.236;21.590;2023-08-12T11:05:25;768.40;1920.00
55016;DHT22;40919;43.236;21.590;2023-08-12T11:12:59;793.60;1894.40
55016;DHT22;40919;43.236;21.590;2023-08-12T11:20:28;794.00;1868.80
55016;DHT22;40919;43.236;21.590;2023-08-12T11:22:55;793.70;1868.80
55016;DHT22;40919;43.236;21.590;2023-08-12T11:25:24;768.80;1843.20
55016;DHT22;40919;43.236;21.590;2023-08-12T11:27:50;793.60;1843.20
55016;DHT22;40919;43.236;21.590;2023-08-12T11:30:18;768.40;1817.60
55016;DHT22;40919;43.236;21.590;2023-08-12T11:32:50;793.70;1868.80
55016;DHT22;40919;43.236;21.590;2023-08-12T11:35:17;794.20;1868.80
55016;DHT22;40919;43.236;21.590;2023-08-12T11:37:52;794.40;1843.20
55016;DHT22;40919;43.236;21.590;2023-08-12T11:40:19;794.30;1817.60
55016;DHT22;40919;43.236;21.590;2023-08-12T11:42:47;794.10;1843.20
55016;DHT22;40919;43.236;21.590;2023-08-12T11:45:18;794.40;1868.80
55016;DHT22;40919;43.236;21.590;2023-08-12T11:47:44;794.50;1817.60
55016;DHT22;40919;43.236;21.590;2023-08-12T11:50:13;819.30;1817.60
55016;DHT22;40919;43.236;21.590;2023-08-12T11:52:40;819.40;1766.40
55016;DHT22;40919;43.236;21.590;2023-08-12T11:55:07;819.50;1792.00
55016;DHT22;40919;43.236;21.590;2023-08-12T11:57:33;819.40;1817.60
55016;DHT22;40919;43.236;21.590;2023-08-12T12:00:04;794.50;1817.60
55016;DHT22;40919;43.236;21.590;2023-08-12T12:02:38;819.20;1792.00
55016;DHT22;40919;43.236;21.590;2023-08-12T12:05:11;819.50;1792.00
55016;DHT22;40919;43.236;21.590;2023-08-12T12:07:37;819.50;1792.00
55016;DHT22;40919;43.236;21.590;2023-08-12T12:15:00;819.90;1740.80
55016;DHT22;40919;43.236;21.590;2023-08-12T12:17:26;819.70;1689.60
55016;DHT22;40919;43.236;21.590;2023-08-12T12:19:56;819.80;1689.60
55016;DHT22;40919;43.236;21.590;2023-08-12T12:22:29;819.80;1689.60
55016;DHT22;40919;43.236;21.590;2023-08-12T12:25:10;819.30;1715.20
55016;DHT22;40919;43.236;21.590;2023-08-12T12:27:37;819.30;1715.20
55016;DHT22;40919;43.236;21.590;2023-08-12T12:30:04;819.60;1689.60
55016;DHT22;40919;43.236;21.590;2023-08-12T16:02:31;793.70;1792.00
55016;DHT22;40919;43.236;21.590;2023-08-12T16:04:57;768.70;1792.00
55016;DHT22;40919;43.236;21.590;2023-08-12T16:09:49;768.10;1843.20
55016;DHT22;40919;43.236;21.590;2023-08-12T16:56:12;691.80;1920.00
55016;DHT22;40919;43.236;21.590;2023-08-12T16:58:38;691.60;1945.60
55016;DHT22;40919;43.236;21.590;2023-08-12T17:47:25;640.90;2048.00
55016;DHT22;40919;43.236;21.590;2023-08-12T17:49:50;640.70;2048.00
55016;DHT22;40919;43.236;21.590;2023-08-12T17:52:16;640.50;2048.00
55016;DHT22;40919;43.236;21.590;2023-08-12T17:54:42;640.20;2099.20
55016;DHT22;40919;43.236;21.590;2023-08-12T17:57:08;640.00;2099.20
55016;DHT22;40919;43.236;21.590;2023-08-12T17:59:33;640.00;2099.20
55016;DHT22;40919;43.236;21.590;2023-08-12T18:01:59;615.30;2099.20
55016;DHT22;40919;43.236;21.590;2023-08-12T18:04:25;615.10;2124.80
55016;DHT22;40919;43.236;21.590;2023-08-12T18:06:51;615.20;2252.80
55016;DHT22;40919;43.236;21.590;2023-08-12T18:09:17;615.10;2176.00
55016;DHT22;40919;43.236;21.590;2023-08-12T18:11:44;615.20;2150.40
55016;DHT22;40919;43.236;21.590;2023-08-12T18:14:10;589.30;2124.80
55016;DHT22;40919;43.236;21.590;2023-08-12T18:19:02;614.80;2150.40
55016;DHT22;40919;43.236;21.590;2023-08-12T18:21:28;614.70;2176.00
55016;DHT22;40919;43.236;21.590;2023-08-12T18:23:54;614.70;2176.00
55016;DHT22;40919;43.236;21.590;2023-08-12T18:26:20;614.70;2176.00
55016;DHT22;40919;43.236;21.590;2023-08-12T18:28:46;614.70;2176.00
55016;DHT22;40919;43.236;21.590;2023-08-12T18:31:11;614.70;2150.40
55016;DHT22;40919;43.236;21.590;2023-08-12T18:33:37;614.70;2176.00
55016;DHT22;40919;43.236;21.590;2023-08-12T18:36:03;614.70;2150.40
55016;DHT22;40919;43.236;21.590;2023-08-12T18:38:30;614.70;2176.00
55016;DHT22;40919;43.236;21.590;2023-08-12T18:40:56;614.70;2150.40
55016;DHT22;40919;43.236;21.590;2023-08-12T18:43:22;614.60;2176.00
55016;DHT22;40919;43.236;21.590;2023-08-12T18:45:49;614.40;2201.60
55016;DHT22;40919;43.236;21.590;2023-08-12T18:48:14;614.40;2176.00
55016;DHT22;40919;43.236;21.590;2023-08-12T18:50:41;614.40;2201.60
55016;DHT22;40919;43.236;21.590;2023-08-12T18:53:07;614.40;2201.60
55016;DHT22;40919;43.236;21.590;2023-08-12T18:55:33;589.70;2201.60
55016;DHT22;40919;43.236;21.590;2023-08-12T18:57:58;589.70;2201.60
55016;DHT22;40919;43.236;21.590;2023-08-12T19:00:24;589.60;2201.60
55016;DHT22;40919;43.236;21.590;2023-08-12T19:02:51;589.40;2227.20
55016;DHT22;40919;43.236;21.590;2023-08-12T19:05:19;589.40;2252.80
55016;DHT22;40919;43.236;21.590;2023-08-12T19:07:44;589.30;2252.80
55016;DHT22;40919;43.236;21.590;2023-08-12T19:10:10;589.30;2278.40
55016;DHT22;40919;43.236;21.590;2023-08-12T19:12:36;589.20;2278.40
55016;DHT22;40919;43.236;21.590;2023-08-12T19:15:02;588.90;2278.40
55016;DHT22;40919;43.236;21.590;2023-08-12T19:17:30;588.90;2278.40
55016;DHT22;40919;43.236;21.590;2023-08-12T19:19:56;588.90;2304.00
55016;DHT22;40919;43.236;21.590;2023-08-12T19:22:21;588.90;2304.00
55016;DHT22;40919;43.236;21.590;2023-08-12T19:24:48;589.00;2278.40
55016;DHT22;40919;43.236;21.590;2023-08-12T19:27:14;589.00;2252.80
55016;DHT22;40919;43.236;21.590;2023-08-12T19:29:41;589.00;2278.40
55016;DHT22;40919;43.236;21.590;2023-08-12T19:32:07;589.00;2304.00
55016;DHT22;40919;43.236;21.590;2023-08-12T19:34:32;589.00;2278.40
55016;DHT22;40919;43.236;21.590;2023-08-12T19:36:58;588.90;2304.00
55016;DHT22;40919;43.236;21.590;2023-08-12T19:39:24;564.10;2304.00
55016;DHT22;40919;43.236;21.590;2023-08-12T19:41:50;563.90;2380.80
55016;DHT22;40919;43.236;21.590;2023-08-12T19:44:16;563.80;2380.80
55016;DHT22;40919;43.236;21.590;2023-08-12T19:46:42;563.90;2380.80
55016;DHT22;40919;43.236;21.590;2023-08-12T19:49:08;563.90;2380.80
55016;DHT22;40919;43.236;21.590;2023-08-12T19:51:34;563.80;2406.40
55016;DHT22;40919;43.236;21.590;2023-08-12T19:54:00;563.60;2406.40
55016;DHT22;40919;43.236;21.590;2023-08-12T20:18:26;563.30;2432.00
55016;DHT22;40919;43.236;21.590;2023-08-12T20:37:56;538.20;2406.40
55016;DHT22;40919;43.236;21.590;2023-08-12T20:40:22;537.90;2406.40
55016;DHT22;40919;43.236;21.590;2023-08-12T20:42:48;538.10;2406.40
55016;DHT22;40919;43.236;21.590;2023-08-12T20:45:14;538.00;2406.40
55016;DHT22;40919;43.236;21.590;2023-08-12T20:47:42;538.00;2406.40
55016;DHT22;40919;43.236;21.590;2023-08-12T20:50:08;538.00;2406.40
55016;DHT22;40919;43.236;21.590;2023-08-12T20:52:34;537.90;2406.40
55016;DHT22;40919;43.236;21.590;2023-08-12T20:54:59;537.90;2406.40
55016;DHT22;40919;43.236;21.590;2023-08-12T20:57:25;537.80;2406.40
55016;DHT22;40919;43.236;21.590;2023-08-12T20:59:51;512.90;2380.80
55016;DHT22;40919;43.236;21.590;2023-08-12T21:02:17;512.80;2380.80
55016;DHT22;40919;43.236;21.590;2023-08-12T21:04:43;512.80;2380.80
55016;DHT22;40919;43.236;21.590;2023-08-12T21:07:09;512.40;2380.80
55016;DHT22;40919;43.236;21.590;2023-08-12T21:09:35;512.40;2380.80
55016;DHT22;40919;43.236;21.590;2023-08-12T21:12:02;512.60;2380.80
55016;DHT22;40919;43.236;21.590;2023-08-12T21:14:28;512.40;2380.80
55016;DHT22;40919;43.236;21.590;2023-08-12T21:16:54;512.60;2380.80
55016;DHT22;40919;43.236;21.590;2023-08-12T21:19:20;512.30;2380.80
55016;DHT22;40919;43.236;21.590;2023-08-12T21:21:46;512.40;2380.80
55016;DHT22;40919;43.236;21.590;2023-08-12T21:24:11;512.40;2380.80
55016;DHT22;40919;43.236;21.590;2023-08-12T21:26:37;512.60;2380.80
55016;DHT22;40919;43.236;21.590;2023-08-12T21:29:04;512.50;2380.80
55016;DHT22;40919;43.236;21.590;2023-08-12T21:31:29;512.20;2380.80
55016;DHT22;40919;43.236;21.590;2023-08-12T21:33:55;512.40;2380.80
55016;DHT22;40919;43.236;21.590;2023-08-12T21:36:21;512.50;2380.80
55016;DHT22;40919;43.236;21.590;2023-08-12T21:38:47;512.30;2380.80
55016;DHT22;40919;43.236;21.590;2023-08-12T21:41:12;512.40;2380.80
55016;DHT22;40919;43.236;21.590;2023-08-12T21:43:38;512.60;2380.80
55016;DHT22;40919;43.236;21.590;2023-08-12T21:46:04;512.40;2380.80
55016;DHT22;40919;43.236;21.590;2023-08-12T21:48:30;512.10;2380.80
55016;DHT22;40919;43.236;21.590;2023-08-12T21:50:55;512.20;2380.80
55016;DHT22;40919;43.236;21.590;2023-08-12T21:53:21;512.10;2380.80
55016;DHT22;40919;43.236;21.590;2023-08-12T21:55:47;512.50;2380.80
55016;DHT22;40919;43.236;21.590;2023-08-12T21:58:13;487.30;2380.80
55016;DHT22;40919;43.236;21.590;2023-08-12T22:00:39;512.00;2380.80
55016;DHT22;40919;43.236;21.590;2023-08-12T22:03:05;487.30;2380.80
55016;DHT22;40919;43.236;21.590;2023-08-12T22:05:31;512.00;2380.80
55016;DHT22;40919;43.236;21.590;2023-08-12T22:07:57;512.00;2380.80
55016;DHT22;40919;43.236;21.590;2023-08-12T22:10:22;512.10;2380.80
55016;DHT22;40919;43.236;21.590;2023-08-12T22:12:48;512.00;2380.80
55016;DHT22;40919;43.236;21.590;2023-08-12T22:15:15;487.30;2380.80
55016;DHT22;40919;43.236;21.590;2023-08-12T22:17:41;487.30;2380.80
55016;DHT22;40919;43.236;21.590;2023-08-12T22:20:10;487.00;2380.80
55016;DHT22;40919;43.236;21.590;2023-08-12T22:22:36;486.70;2380.80
55016;DHT22;40919;43.236;21.590;2023-08-12T22:25:02;486.90;2380.80
55016;DHT22;40919;43.236;21.590;2023-08-12T22:27:28;486.80;2380.80
55016;DHT22;40919;43.236;21.590;2023-08-12T22:29:53;487.00;2380.80
55016;DHT22;40919;43.236;21.590;2023-08-12T22:32:19;486.80;2380.80
55016;DHT22;40919;43.236;21.590;2023-08-12T22:34:45;486.90;2380.80
55016;DHT22;40919;43.236;21.590;2023-08-12T22:37:11;487.00;2380.80
55016;DHT22;40919;43.236;21.590;2023-08-12T22:39:37;486.90;2380.80
55016;DHT22;40919;43.236;21.590;2023-08-12T22:42:03;487.00;2380.80
55016;DHT22;40919;43.236;21.590;2023-08-12T22:44:29;487.10;2380.80
55016;DHT22;40919;43.236;21.590;2023-08-12T22:46:55;487.10;2380.80
55016;DHT22;40919;43.236;21.590;2023-08-12T22:49:20;486.80;2380.80
55016;DHT22;40919;43.236;21.590;2023-08-12T22:51:46;486.50;2380.80
55016;DHT22;40919;43.236;21.590;2023-08-12T22:54:12;486.70;2380.80
55016;DHT22;40919;43.236;21.590;2023-08-12T22:59:04;486.80;2380.80
55016;DHT22;40919;43.236;21.590;2023-08-12T23:01:30;486.80;2380.80
55016;DHT22;40919;43.236;21.590;2023-08-12T23:03:56;486.80;2380.80
55016;DHT22;40919;43.236;21.590;2023-08-12T23:06:22;486.50;2380.80
55016;DHT22;40919;43.236;21.590;2023-08-12T23:11:14;486.40;2380.80
55016;DHT22;40919;43.236;21.590;2023-08-12T23:13:39;461.70;2380.80
55016;DHT22;40919;43.236;21.590;2023-08-12T23:16:05;486.40;2380.80
55016;DHT22;40919;43.236;21.590;2023-08-12T23:18:31;486.50;2380.80
55016;DHT22;40919;43.236;21.590;2023-08-12T23:20:57;486.50;2380.80
55016;DHT22;40919;43.236;21.590;2023-08-12T23:23:24;486.50;2380.80
55016;DHT22;40919;43.236;21.590;2023-08-12T23:25:50;486.50;2380.80
55016;DHT22;40919;43.236;21.590;2023-08-12T23:28:16;486.40;2380.80
55016;DHT22;40919;43.236;21.590;2023-08-12T23:30:42;486.50;2380.80
55016;DHT22;40919;43.236;21.590;2023-08-12T23:33:07;486.40;2380.80
55016;DHT22;40919;43.236;21.590;2023-08-12T23:35:33;461.70;2380.80
55016;DHT22;40919;43.236;21.590;2023-08-12T23:37:59;461.50;2380.80
55016;DHT22;40919;43.236;21.590;2023-08-12T23:40:25;461.60;2380.80
55016;DHT22;40919;43.236;21.590;2023-08-12T23:42:51;461.50;2380.80
55016;DHT22;40919;43.236;21.590;2023-08-12T23:45:16;461.60;2380.80
55016;DHT22;40919;43.236;21.590;2023-08-12T23:47:42;461.40;2380.80
55016;DHT22;40919;43.236;21.590;2023-08-12T23:50:09;461.30;2380.80
55016;DHT22;40919;43.236;21.590;2023-08-12T23:52:37;461.40;2380.80
55016;DHT22;40919;43.236;21.590;2023-08-12T23:55:03;461.40;2380.80
55016;DHT22;40919;43.236;21.590;2023-08-12T23:57:29;461.40;2380.80
55016;DHT22;40919;43.236;21.590;2023-08-12T23:59:55;461.40;2380.80
